Los Angeles, California
Traffic Map
Current Weather Conditions
Los Angeles, California
Clear
Clear
21°
Feels Like: 21°
Wind Chill: 21° Ceiling: Unl
Heat Index: 21° Visibility: 10mi
Dew Point: 11° Wind: 8mph
Humidity: 54% Direction: 270° (W)
Pressure: 29.96in Gusts: 0mph
Raw Report DataKCQT 212347Z AUTO 27007KT 10SM CLR 21/11 A2996 RMK AO2 SLP142 T02060111 10283 20206 55013
Traffic Incident Summary
Active as of:
Severity:
Category:
InformationThere was an issue retrieving the traffic information for this location. Please try a different location or try again shortly.
Advertisements